sensor_id;sensor_type;location;lat;lon;timestamp;P1;durP1;ratioP1;P2;durP2;ratioP2
13475;SDS011;6810;63.824;20.288;2023-11-19T00:02:13;0.93;;;0.37;;
13475;SDS011;6810;63.824;20.288;2023-11-19T00:05:00;1.10;;;1.00;;
13475;SDS011;6810;63.824;20.288;2023-11-19T00:07:47;1.70;;;1.17;;
13475;SDS011;6810;63.824;20.288;2023-11-19T00:10:35;1.43;;;0.73;;
13475;SDS011;6810;63.824;20.288;2023-11-19T00:13:21;0.60;;;0.60;;
13475;SDS011;6810;63.824;20.288;2023-11-19T00:16:08;1.53;;;0.87;;
13475;SDS011;6810;63.824;20.288;2023-11-19T00:18:55;1.33;;;0.50;;
13475;SDS011;6810;63.824;20.288;2023-11-19T00:21:42;0.63;;;0.50;;
13475;SDS011;6810;63.824;20.288;2023-11-19T00:24:30;1.37;;;0.73;;
13475;SDS011;6810;63.824;20.288;2023-11-19T00:27:17;0.63;;;0.40;;
13475;SDS011;6810;63.824;20.288;2023-11-19T00:30:07;1.97;;;0.50;;
13475;SDS011;6810;63.824;20.288;2023-11-19T00:32:57;2.20;;;0.63;;
13475;SDS011;6810;63.824;20.288;2023-11-19T00:35:44;0.73;;;0.73;;
13475;SDS011;6810;63.824;20.288;2023-11-19T00:38:31;1.13;;;0.47;;
13475;SDS011;6810;63.824;20.288;2023-11-19T00:41:18;0.30;;;0.30;;
13475;SDS011;6810;63.824;20.288;2023-11-19T00:44:06;0.70;;;0.40;;
13475;SDS011;6810;63.824;20.288;2023-11-19T00:46:53;1.23;;;0.50;;
13475;SDS011;6810;63.824;20.288;2023-11-19T00:49:40;0.67;;;0.50;;
13475;SDS011;6810;63.824;20.288;2023-11-19T00:52:28;1.00;;;0.43;;
13475;SDS011;6810;63.824;20.288;2023-11-19T00:55:14;0.50;;;0.50;;
13475;SDS011;6810;63.824;20.288;2023-11-19T00:58:12;0.30;;;0.30;;
13475;SDS011;6810;63.824;20.288;2023-11-19T01:00:59;0.40;;;0.40;;
13475;SDS011;6810;63.824;20.288;2023-11-19T01:03:46;1.03;;;0.53;;
13475;SDS011;6810;63.824;20.288;2023-11-19T01:06:33;0.47;;;0.47;;
13475;SDS011;6810;63.824;20.288;2023-11-19T01:09:20;0.40;;;0.40;;
13475;SDS011;6810;63.824;20.288;2023-11-19T01:12:07;0.33;;;0.33;;
13475;SDS011;6810;63.824;20.288;2023-11-19T01:14:54;0.53;;;0.53;;
13475;SDS011;6810;63.824;20.288;2023-11-19T01:17:42;1.17;;;0.40;;
13475;SDS011;6810;63.824;20.288;2023-11-19T01:20:29;1.27;;;0.70;;
13475;SDS011;6810;63.824;20.288;2023-11-19T01:23:16;1.03;;;0.73;;
13475;SDS011;6810;63.824;20.288;2023-11-19T01:26:03;1.80;;;0.80;;
13475;SDS011;6810;63.824;20.288;2023-11-19T01:28:50;1.17;;;1.07;;
13475;SDS011;6810;63.824;20.288;2023-11-19T01:31:37;2.40;;;1.07;;
13475;SDS011;6810;63.824;20.288;2023-11-19T01:34:24;1.23;;;0.83;;
13475;SDS011;6810;63.824;20.288;2023-11-19T01:37:11;0.87;;;0.80;;
13475;SDS011;6810;63.824;20.288;2023-11-19T01:39:59;1.10;;;0.87;;
13475;SDS011;6810;63.824;20.288;2023-11-19T01:42:46;0.40;;;0.40;;
13475;SDS011;6810;63.824;20.288;2023-11-19T01:45:39;1.63;;;0.60;;
13475;SDS011;6810;63.824;20.288;2023-11-19T01:48:27;0.83;;;0.67;;
13475;SDS011;6810;63.824;20.288;2023-11-19T01:51:14;1.13;;;0.73;;
13475;SDS011;6810;63.824;20.288;2023-11-19T01:54:03;1.23;;;0.90;;
13475;SDS011;6810;63.824;20.288;2023-11-19T01:56:50;0.70;;;0.70;;
13475;SDS011;6810;63.824;20.288;2023-11-19T01:59:40;0.83;;;0.70;;
13475;SDS011;6810;63.824;20.288;2023-11-19T02:02:27;1.50;;;0.77;;
13475;SDS011;6810;63.824;20.288;2023-11-19T02:05:15;3.60;;;1.20;;
13475;SDS011;6810;63.824;20.288;2023-11-19T02:08:02;2.07;;;0.97;;
13475;SDS011;6810;63.824;20.288;2023-11-19T02:10:49;0.87;;;0.73;;
13475;SDS011;6810;63.824;20.288;2023-11-19T02:13:37;1.60;;;0.73;;
13475;SDS011;6810;63.824;20.288;2023-11-19T02:16:24;2.27;;;1.27;;
13475;SDS011;6810;63.824;20.288;2023-11-19T02:19:11;1.20;;;1.00;;
13475;SDS011;6810;63.824;20.288;2023-11-19T02:22:19;1.63;;;0.70;;
13475;SDS011;6810;63.824;20.288;2023-11-19T02:25:17;1.13;;;0.93;;
13475;SDS011;6810;63.824;20.288;2023-11-19T02:28:09;1.27;;;0.47;;
13475;SDS011;6810;63.824;20.288;2023-11-19T02:30:56;1.90;;;0.73;;
13475;SDS011;6810;63.824;20.288;2023-11-19T02:33:44;1.50;;;0.53;;
13475;SDS011;6810;63.824;20.288;2023-11-19T02:36:31;1.57;;;0.90;;
13475;SDS011;6810;63.824;20.288;2023-11-19T02:39:18;2.97;;;1.00;;
13475;SDS011;6810;63.824;20.288;2023-11-19T02:42:05;3.40;;;0.60;;
13475;SDS011;6810;63.824;20.288;2023-11-19T02:44:52;1.40;;;0.40;;
13475;SDS011;6810;63.824;20.288;2023-11-19T02:47:42;2.70;;;0.90;;
13475;SDS011;6810;63.824;20.288;2023-11-19T02:50:30;0.73;;;0.50;;
13475;SDS011;6810;63.824;20.288;2023-11-19T02:53:17;1.37;;;0.60;;
13475;SDS011;6810;63.824;20.288;2023-11-19T02:56:05;1.40;;;0.50;;
13475;SDS011;6810;63.824;20.288;2023-11-19T02:58:53;1.10;;;0.60;;
13475;SDS011;6810;63.824;20.288;2023-11-19T03:01:40;7.50;;;0.57;;
13475;SDS011;6810;63.824;20.288;2023-11-19T03:04:27;1.27;;;0.60;;
13475;SDS011;6810;63.824;20.288;2023-11-19T03:07:14;0.50;;;0.30;;
13475;SDS011;6810;63.824;20.288;2023-11-19T03:10:01;0.67;;;0.47;;
13475;SDS011;6810;63.824;20.288;2023-11-19T03:12:48;0.60;;;0.60;;
13475;SDS011;6810;63.824;20.288;2023-11-19T03:15:36;0.97;;;0.53;;
13475;SDS011;6810;63.824;20.288;2023-11-19T03:18:23;1.90;;;1.30;;
13475;SDS011;6810;63.824;20.288;2023-11-19T03:21:10;0.90;;;0.83;;
13475;SDS011;6810;63.824;20.288;2023-11-19T03:23:57;1.07;;;0.37;;
13475;SDS011;6810;63.824;20.288;2023-11-19T03:26:48;1.37;;;0.60;;
13475;SDS011;6810;63.824;20.288;2023-11-19T03:29:36;0.67;;;0.60;;
13475;SDS011;6810;63.824;20.288;2023-11-19T03:32:23;1.33;;;0.67;;
13475;SDS011;6810;63.824;20.288;2023-11-19T03:35:10;1.83;;;0.60;;
13475;SDS011;6810;63.824;20.288;2023-11-19T03:37:57;0.83;;;0.70;;
13475;SDS011;6810;63.824;20.288;2023-11-19T03:40:44;1.03;;;0.60;;
13475;SDS011;6810;63.824;20.288;2023-11-19T03:43:31;0.63;;;0.40;;
13475;SDS011;6810;63.824;20.288;2023-11-19T03:46:21;0.80;;;0.50;;
13475;SDS011;6810;63.824;20.288;2023-11-19T03:49:08;0.40;;;0.40;;
13475;SDS011;6810;63.824;20.288;2023-11-19T03:51:55;2.50;;;1.23;;
13475;SDS011;6810;63.824;20.288;2023-11-19T03:54:46;1.83;;;0.60;;
13475;SDS011;6810;63.824;20.288;2023-11-19T03:57:34;1.07;;;0.40;;
13475;SDS011;6810;63.824;20.288;2023-11-19T04:00:21;0.93;;;0.60;;
13475;SDS011;6810;63.824;20.288;2023-11-19T04:03:08;0.90;;;0.80;;
13475;SDS011;6810;63.824;20.288;2023-11-19T04:05:55;1.73;;;0.50;;
13475;SDS011;6810;63.824;20.288;2023-11-19T04:08:42;1.67;;;0.47;;
13475;SDS011;6810;63.824;20.288;2023-11-19T04:11:29;1.07;;;0.70;;
13475;SDS011;6810;63.824;20.288;2023-11-19T04:14:16;1.47;;;0.73;;
13475;SDS011;6810;63.824;20.288;2023-11-19T04:17:03;1.17;;;0.77;;
13475;SDS011;6810;63.824;20.288;2023-11-19T04:19:51;0.50;;;0.50;;
13475;SDS011;6810;63.824;20.288;2023-11-19T04:22:38;1.43;;;0.60;;
13475;SDS011;6810;63.824;20.288;2023-11-19T04:25:25;1.27;;;0.63;;
13475;SDS011;6810;63.824;20.288;2023-11-19T04:28:12;0.77;;;0.60;;
13475;SDS011;6810;63.824;20.288;2023-11-19T04:30:59;1.30;;;0.23;;
13475;SDS011;6810;63.824;20.288;2023-11-19T04:33:47;0.53;;;0.53;;
13475;SDS011;6810;63.824;20.288;2023-11-19T04:36:34;1.77;;;1.00;;
13475;SDS011;6810;63.824;20.288;2023-11-19T04:39:21;0.43;;;0.40;;
13475;SDS011;6810;63.824;20.288;2023-11-19T04:42:08;0.43;;;0.27;;
13475;SDS011;6810;63.824;20.288;2023-11-19T04:44:55;0.60;;;0.40;;
13475;SDS011;6810;63.824;20.288;2023-11-19T04:47:42;0.77;;;0.77;;
13475;SDS011;6810;63.824;20.288;2023-11-19T04:50:30;1.13;;;0.40;;
13475;SDS011;6810;63.824;20.288;2023-11-19T04:53:17;0.73;;;0.70;;
13475;SDS011;6810;63.824;20.288;2023-11-19T04:56:07;0.50;;;0.37;;
13475;SDS011;6810;63.824;20.288;2023-11-19T04:58:55;0.50;;;0.50;;
13475;SDS011;6810;63.824;20.288;2023-11-19T05:01:46;0.30;;;0.30;;
13475;SDS011;6810;63.824;20.288;2023-11-19T05:04:33;0.23;;;0.23;;
13475;SDS011;6810;63.824;20.288;2023-11-19T05:07:20;0.57;;;0.50;;
13475;SDS011;6810;63.824;20.288;2023-11-19T05:10:08;0.40;;;0.40;;
13475;SDS011;6810;63.824;20.288;2023-11-19T05:12:55;0.93;;;0.60;;
13475;SDS011;6810;63.824;20.288;2023-11-19T05:15:42;1.10;;;0.53;;
13475;SDS011;6810;63.824;20.288;2023-11-19T05:18:29;1.10;;;0.57;;
13475;SDS011;6810;63.824;20.288;2023-11-19T05:21:16;0.20;;;0.20;;
13475;SDS011;6810;63.824;20.288;2023-11-19T05:24:03;0.60;;;0.40;;
13475;SDS011;6810;63.824;20.288;2023-11-19T05:26:51;1.00;;;0.23;;
13475;SDS011;6810;63.824;20.288;2023-11-19T05:29:38;0.60;;;0.20;;
13475;SDS011;6810;63.824;20.288;2023-11-19T05:32:25;0.60;;;0.50;;
13475;SDS011;6810;63.824;20.288;2023-11-19T05:35:12;0.50;;;0.40;;
13475;SDS011;6810;63.824;20.288;2023-11-19T05:37:59;5.63;;;0.60;;
13475;SDS011;6810;63.824;20.288;2023-11-19T05:40:46;0.27;;;0.23;;
13475;SDS011;6810;63.824;20.288;2023-11-19T05:43:33;1.43;;;0.40;;
13475;SDS011;6810;63.824;20.288;2023-11-19T05:46:20;0.20;;;0.20;;
13475;SDS011;6810;63.824;20.288;2023-11-19T05:49:08;0.10;;;0.10;;
13475;SDS011;6810;63.824;20.288;2023-11-19T05:51:55;0.20;;;0.20;;
13475;SDS011;6810;63.824;20.288;2023-11-19T05:54:42;0.00;;;0.00;;
13475;SDS011;6810;63.824;20.288;2023-11-19T05:57:29;0.53;;;0.20;;
13475;SDS011;6810;63.824;20.288;2023-11-19T06:00:16;0.60;;;0.23;;
13475;SDS011;6810;63.824;20.288;2023-11-19T06:03:04;1.47;;;0.47;;
13475;SDS011;6810;63.824;20.288;2023-11-19T06:05:52;1.00;;;0.20;;
13475;SDS011;6810;63.824;20.288;2023-11-19T06:08:39;0.10;;;0.00;;
13475;SDS011;6810;63.824;20.288;2023-11-19T06:11:39;0.57;;;0.33;;
13475;SDS011;6810;63.824;20.288;2023-11-19T06:14:26;0.73;;;0.10;;
13475;SDS011;6810;63.824;20.288;2023-11-19T06:17:13;0.93;;;0.33;;
13475;SDS011;6810;63.824;20.288;2023-11-19T06:20:00;1.07;;;0.10;;
13475;SDS011;6810;63.824;20.288;2023-11-19T06:22:47;0.40;;;0.30;;
13475;SDS011;6810;63.824;20.288;2023-11-19T06:25:34;0.30;;;0.27;;
13475;SDS011;6810;63.824;20.288;2023-11-19T06:28:21;0.27;;;0.27;;
13475;SDS011;6810;63.824;20.288;2023-11-19T06:31:08;0.10;;;0.10;;
13475;SDS011;6810;63.824;20.288;2023-11-19T06:33:55;0.10;;;0.10;;
13475;SDS011;6810;63.824;20.288;2023-11-19T06:36:42;0.50;;;0.40;;
13475;SDS011;6810;63.824;20.288;2023-11-19T06:39:32;0.50;;;0.43;;
13475;SDS011;6810;63.824;20.288;2023-11-19T06:42:19;0.93;;;0.30;;
13475;SDS011;6810;63.824;20.288;2023-11-19T06:45:06;0.73;;;0.50;;
13475;SDS011;6810;63.824;20.288;2023-11-19T06:47:53;0.47;;;0.30;;
13475;SDS011;6810;63.824;20.288;2023-11-19T06:50:40;0.80;;;0.80;;
13475;SDS011;6810;63.824;20.288;2023-11-19T06:53:27;0.37;;;0.30;;
13475;SDS011;6810;63.824;20.288;2023-11-19T06:56:21;0.90;;;0.73;;
13475;SDS011;6810;63.824;20.288;2023-11-19T06:59:09;0.63;;;0.63;;
13475;SDS011;6810;63.824;20.288;2023-11-19T07:01:56;1.17;;;0.40;;
13475;SDS011;6810;63.824;20.288;2023-11-19T07:04:43;0.30;;;0.30;;
13475;SDS011;6810;63.824;20.288;2023-11-19T07:07:31;0.40;;;0.40;;
13475;SDS011;6810;63.824;20.288;2023-11-19T07:10:19;1.00;;;0.50;;
13475;SDS011;6810;63.824;20.288;2023-11-19T07:13:06;0.50;;;0.50;;
13475;SDS011;6810;63.824;20.288;2023-11-19T07:15:53;1.07;;;0.50;;
13475;SDS011;6810;63.824;20.288;2023-11-19T07:18:40;0.40;;;0.40;;
13475;SDS011;6810;63.824;20.288;2023-11-19T07:21:27;0.77;;;0.57;;
13475;SDS011;6810;63.824;20.288;2023-11-19T07:24:14;0.20;;;0.20;;
13475;SDS011;6810;63.824;20.288;2023-11-19T07:27:01;1.17;;;0.80;;
13475;SDS011;6810;63.824;20.288;2023-11-19T07:29:49;1.70;;;0.73;;
13475;SDS011;6810;63.824;20.288;2023-11-19T07:32:36;1.17;;;0.60;;
13475;SDS011;6810;63.824;20.288;2023-11-19T07:35:23;1.17;;;0.77;;
13475;SDS011;6810;63.824;20.288;2023-11-19T07:38:10;1.07;;;0.60;;
13475;SDS011;6810;63.824;20.288;2023-11-19T07:40:57;5.20;;;0.80;;
13475;SDS011;6810;63.824;20.288;2023-11-19T07:43:44;0.93;;;0.40;;
13475;SDS011;6810;63.824;20.288;2023-11-19T07:46:31;0.47;;;0.47;;
13475;SDS011;6810;63.824;20.288;2023-11-19T07:49:18;2.10;;;1.03;;
13475;SDS011;6810;63.824;20.288;2023-11-19T07:52:05;0.63;;;0.47;;
13475;SDS011;6810;63.824;20.288;2023-11-19T07:54:52;0.70;;;0.70;;
13475;SDS011;6810;63.824;20.288;2023-11-19T07:57:39;2.20;;;0.50;;
13475;SDS011;6810;63.824;20.288;2023-11-19T08:00:26;1.17;;;0.70;;
13475;SDS011;6810;63.824;20.288;2023-11-19T08:03:13;1.73;;;0.47;;
13475;SDS011;6810;63.824;20.288;2023-11-19T08:06:02;1.10;;;0.73;;
13475;SDS011;6810;63.824;20.288;2023-11-19T08:08:50;0.63;;;0.23;;
13475;SDS011;6810;63.824;20.288;2023-11-19T08:11:37;1.90;;;0.60;;
13475;SDS011;6810;63.824;20.288;2023-11-19T08:14:24;2.37;;;0.70;;
13475;SDS011;6810;63.824;20.288;2023-11-19T08:17:11;1.50;;;0.67;;
13475;SDS011;6810;63.824;20.288;2023-11-19T08:19:58;1.27;;;0.90;;
13475;SDS011;6810;63.824;20.288;2023-11-19T08:22:45;1.23;;;0.90;;
13475;SDS011;6810;63.824;20.288;2023-11-19T08:25:32;1.70;;;0.90;;
13475;SDS011;6810;63.824;20.288;2023-11-19T08:28:22;2.07;;;1.23;;
13475;SDS011;6810;63.824;20.288;2023-11-19T08:31:09;2.30;;;0.90;;
13475;SDS011;6810;63.824;20.288;2023-11-19T08:33:56;2.20;;;1.07;;
13475;SDS011;6810;63.824;20.288;2023-11-19T08:36:43;2.43;;;1.20;;
13475;SDS011;6810;63.824;20.288;2023-11-19T08:39:30;1.43;;;0.60;;
13475;SDS011;6810;63.824;20.288;2023-11-19T08:42:18;1.47;;;0.87;;
13475;SDS011;6810;63.824;20.288;2023-11-19T08:45:05;1.87;;;0.97;;
13475;SDS011;6810;63.824;20.288;2023-11-19T08:47:52;1.97;;;0.80;;
13475;SDS011;6810;63.824;20.288;2023-11-19T08:50:39;3.60;;;1.17;;
13475;SDS011;6810;63.824;20.288;2023-11-19T08:53:26;4.53;;;1.17;;
13475;SDS011;6810;63.824;20.288;2023-11-19T08:56:13;3.33;;;1.03;;
13475;SDS011;6810;63.824;20.288;2023-11-19T08:59:01;1.73;;;1.27;;
13475;SDS011;6810;63.824;20.288;2023-11-19T09:01:48;2.23;;;0.90;;
13475;SDS011;6810;63.824;20.288;2023-11-19T09:04:35;2.97;;;1.07;;
13475;SDS011;6810;63.824;20.288;2023-11-19T09:07:22;1.67;;;0.83;;
13475;SDS011;6810;63.824;20.288;2023-11-19T09:10:09;1.77;;;0.80;;
13475;SDS011;6810;63.824;20.288;2023-11-19T09:12:56;2.20;;;0.90;;
13475;SDS011;6810;63.824;20.288;2023-11-19T09:15:43;1.97;;;1.47;;
13475;SDS011;6810;63.824;20.288;2023-11-19T09:18:31;3.97;;;1.37;;
13475;SDS011;6810;63.824;20.288;2023-11-19T09:21:18;5.57;;;2.50;;
13475;SDS011;6810;63.824;20.288;2023-11-19T09:24:05;1.80;;;1.20;;
13475;SDS011;6810;63.824;20.288;2023-11-19T09:26:52;2.83;;;1.63;;
13475;SDS011;6810;63.824;20.288;2023-11-19T09:29:39;3.13;;;1.93;;
13475;SDS011;6810;63.824;20.288;2023-11-19T09:32:26;4.07;;;2.13;;
13475;SDS011;6810;63.824;20.288;2023-11-19T09:35:13;4.03;;;2.10;;
13475;SDS011;6810;63.824;20.288;2023-11-19T09:38:00;4.03;;;2.20;;
13475;SDS011;6810;63.824;20.288;2023-11-19T09:40:47;3.90;;;2.00;;
13475;SDS011;6810;63.824;20.288;2023-11-19T09:43:35;4.10;;;2.10;;
13475;SDS011;6810;63.824;20.288;2023-11-19T09:46:25;2.90;;;1.73;;
13475;SDS011;6810;63.824;20.288;2023-11-19T09:49:13;4.43;;;1.87;;
13475;SDS011;6810;63.824;20.288;2023-11-19T09:52:05;4.57;;;2.33;;
13475;SDS011;6810;63.824;20.288;2023-11-19T09:54:52;4.17;;;2.13;;
13475;SDS011;6810;63.824;20.288;2023-11-19T09:57:39;6.73;;;2.10;;
13475;SDS011;6810;63.824;20.288;2023-11-19T10:00:27;6.53;;;2.40;;
13475;SDS011;6810;63.824;20.288;2023-11-19T10:03:34;4.93;;;1.83;;
13475;SDS011;6810;63.824;20.288;2023-11-19T10:06:22;4.83;;;2.00;;
13475;SDS011;6810;63.824;20.288;2023-11-19T10:09:11;4.63;;;1.97;;
13475;SDS011;6810;63.824;20.288;2023-11-19T10:11:59;2.80;;;1.53;;
13475;SDS011;6810;63.824;20.288;2023-11-19T10:14:46;3.83;;;1.90;;
13475;SDS011;6810;63.824;20.288;2023-11-19T10:17:35;4.50;;;1.97;;
13475;SDS011;6810;63.824;20.288;2023-11-19T10:20:22;2.40;;;1.33;;
13475;SDS011;6810;63.824;20.288;2023-11-19T10:23:09;6.90;;;2.33;;
13475;SDS011;6810;63.824;20.288;2023-11-19T10:26:02;4.97;;;2.20;;
13475;SDS011;6810;63.824;20.288;2023-11-19T10:28:50;3.13;;;1.63;;
13475;SDS011;6810;63.824;20.288;2023-11-19T10:31:37;3.00;;;1.73;;
13475;SDS011;6810;63.824;20.288;2023-11-19T10:34:44;3.07;;;1.70;;
13475;SDS011;6810;63.824;20.288;2023-11-19T10:37:31;3.60;;;1.90;;
13475;SDS011;6810;63.824;20.288;2023-11-19T10:40:18;5.27;;;2.33;;
13475;SDS011;6810;63.824;20.288;2023-11-19T10:43:05;3.67;;;1.87;;
13475;SDS011;6810;63.824;20.288;2023-11-19T10:45:53;3.97;;;2.17;;
13475;SDS011;6810;63.824;20.288;2023-11-19T10:48:40;2.53;;;1.50;;
13475;SDS011;6810;63.824;20.288;2023-11-19T10:51:27;2.53;;;1.83;;
13475;SDS011;6810;63.824;20.288;2023-11-19T10:54:17;2.43;;;1.80;;
13475;SDS011;6810;63.824;20.288;2023-11-19T10:57:05;3.90;;;1.93;;
13475;SDS011;6810;63.824;20.288;2023-11-19T10:59:57;3.43;;;1.97;;
13475;SDS011;6810;63.824;20.288;2023-11-19T11:02:37;3.27;;;1.43;;
13475;SDS011;6810;63.824;20.288;2023-11-19T11:05:29;2.23;;;1.33;;
13475;SDS011;6810;63.824;20.288;2023-11-19T11:08:19;4.43;;;1.80;;
13475;SDS011;6810;63.824;20.288;2023-11-19T11:11:07;3.70;;;1.63;;
13475;SDS011;6810;63.824;20.288;2023-11-19T11:13:54;2.40;;;1.63;;
13475;SDS011;6810;63.824;20.288;2023-11-19T11:16:43;2.50;;;2.00;;
13475;SDS011;6810;63.824;20.288;2023-11-19T11:19:30;2.63;;;1.53;;
13475;SDS011;6810;63.824;20.288;2023-11-19T11:22:17;2.40;;;1.40;;
13475;SDS011;6810;63.824;20.288;2023-11-19T11:25:13;1.77;;;1.30;;
13475;SDS011;6810;63.824;20.288;2023-11-19T11:28:15;3.43;;;1.40;;
13475;SDS011;6810;63.824;20.288;2023-11-19T11:31:21;3.47;;;1.80;;
13475;SDS011;6810;63.824;20.288;2023-11-19T11:40:31;2.07;;;1.43;;
13475;SDS011;6810;63.824;20.288;2023-11-19T11:49:23;3.23;;;1.80;;
13475;SDS011;6810;63.824;20.288;2023-11-19T11:52:11;3.57;;;2.10;;
13475;SDS011;6810;63.824;20.288;2023-11-19T11:55:04;4.60;;;2.50;;
13475;SDS011;6810;63.824;20.288;2023-11-19T11:57:51;2.77;;;1.83;;
13475;SDS011;6810;63.824;20.288;2023-11-19T12:00:39;3.47;;;2.13;;
13475;SDS011;6810;63.824;20.288;2023-11-19T22:28:40;0.40;;;0.40;;
13475;SDS011;6810;63.824;20.288;2023-11-19T22:31:07;0.43;;;0.33;;
13475;SDS011;6810;63.824;20.288;2023-11-19T22:33:35;0.57;;;0.50;;
13475;SDS011;6810;63.824;20.288;2023-11-19T22:36:02;0.80;;;0.50;;
13475;SDS011;6810;63.824;20.288;2023-11-19T22:38:49;0.97;;;0.80;;
13475;SDS011;6810;63.824;20.288;2023-11-19T22:41:36;0.40;;;0.40;;
13475;SDS011;6810;63.824;20.288;2023-11-19T22:44:23;0.63;;;0.57;;
13475;SDS011;6810;63.824;20.288;2023-11-19T22:47:10;0.47;;;0.47;;
13475;SDS011;6810;63.824;20.288;2023-11-19T22:49:57;0.83;;;0.50;;
13475;SDS011;6810;63.824;20.288;2023-11-19T22:52:44;0.40;;;0.40;;
13475;SDS011;6810;63.824;20.288;2023-11-19T22:55:31;1.60;;;0.60;;
13475;SDS011;6810;63.824;20.288;2023-11-19T22:58:18;0.50;;;0.40;;
13475;SDS011;6810;63.824;20.288;2023-11-19T23:01:05;0.83;;;0.60;;
13475;SDS011;6810;63.824;20.288;2023-11-19T23:03:52;0.60;;;0.50;;
13475;SDS011;6810;63.824;20.288;2023-11-19T23:06:39;0.63;;;0.60;;
13475;SDS011;6810;63.824;20.288;2023-11-19T23:09:27;1.57;;;0.50;;
13475;SDS011;6810;63.824;20.288;2023-11-19T23:12:14;0.87;;;0.50;;
13475;SDS011;6810;63.824;20.288;2023-11-19T23:15:01;0.60;;;0.40;;
13475;SDS011;6810;63.824;20.288;2023-11-19T23:17:48;1.03;;;0.60;;
13475;SDS011;6810;63.824;20.288;2023-11-19T23:20:35;0.57;;;0.53;;
13475;SDS011;6810;63.824;20.288;2023-11-19T23:23:22;0.50;;;0.40;;
13475;SDS011;6810;63.824;20.288;2023-11-19T23:26:10;0.87;;;0.53;;
13475;SDS011;6810;63.824;20.288;2023-11-19T23:28:57;0.60;;;0.60;;
13475;SDS011;6810;63.824;20.288;2023-11-19T23:31:44;0.40;;;0.40;;
13475;SDS011;6810;63.824;20.288;2023-11-19T23:34:31;0.90;;;0.60;;
13475;SDS011;6810;63.824;20.288;2023-11-19T23:37:18;0.70;;;0.50;;
13475;SDS011;6810;63.824;20.288;2023-11-19T23:40:05;1.13;;;0.57;;
13475;SDS011;6810;63.824;20.288;2023-11-19T23:42:53;0.40;;;0.40;;
13475;SDS011;6810;63.824;20.288;2023-11-19T23:45:40;0.60;;;0.30;;
13475;SDS011;6810;63.824;20.288;2023-11-19T23:48:28;0.37;;;0.30;;
13475;SDS011;6810;63.824;20.288;2023-11-19T23:51:18;0.73;;;0.50;;
13475;SDS011;6810;63.824;20.288;2023-11-19T23:54:05;1.07;;;0.60;;
13475;SDS011;6810;63.824;20.288;2023-11-19T23:56:52;0.73;;;0.50;;
13475;SDS011;6810;63.824;20.288;2023-11-19T23:59:40;1.03;;;0.60;;
